Latest METARs, TAFs and NOTAMs for ETSI


---------------------------------------------------------------------------
	(OBSERVATIONS)
ETSI 020320Z 25005KT 8000 FEW045 BKN060 12/11 Q1020 BLU=
ETSI 020220Z AUTO 25005KT 9000 // ////// 12/11 Q1020 ///=
ETSI 020120Z AUTO 24004KT 9999 // ////// 12/11 Q1020 ///=
---------------------------------------------------------------------------
	(FC)
TAF ETSI 011319Z 0114/0123 32005KT 9999 NSW SCT020 SCT050
     TEMPO 0114/0123 30010KT 9999 NSW SCT015 BKN040 CANCEL 1420=
---------------------------------------------------------------------------
	(TERMINAL AREA FORECAST)
ETSI 011319Z 0114/0123 32005KT 9999 NSW SCT020 SCT050
    TEMPO  0114/0123 30010KT 9999 NSW SCT015 BKN040
    CANCEL 1420=
---------------------------------------------------------------------------
	(NOTAMS)


ETSI E1089/14 SPECIAL ACTIVITY AREA ESTABLISHED FOR GLIDER AEROBATICS
    RADIUS 3NM CENTERED AT 4842N 01132E INGOLSTADT/MANCHING AIRFIELD.
    GND - 6000FT AMSL, SAT-SUN 0700-SS, AUG 15 AND OCT 03 0700-SS,
    27 JUL 07:00 2014 UNTIL 25 OCT 16:07 2014. CREATED: 07 MAY
    08:22 2014

ETSI E1091/14 SPECIAL ACTIVITY AREA ESTABLISHED FOR GLIDER AEROBATICS
    RADIUS 3NM CENTERED AT 4842N 01132E INGOLSTADT/MANCHING AIRFIELD.
    GND - 6000FT AMSL, SAT-SUN 0700-SS, DEC 25 26 0700-SS, 26
    OCT 07:00 2014 UNTIL 28 DEC 15:14 2014. CREATED: 07 MAY 09:44
    2014

ETSI E2332/14 SPECIAL ACTIVITY AREA ESTABLISHED FOR SPINTRAINING,
    3NM RADIUS CENTERED AT PSN 484100N 0113300E, AT MANCHING
    MILITARY AIRBASE (5NM SW INGOLSTADT NDB IGL). GND - FL075,
    DAILY 0630-1100 AND 1130-1700, 06 OCT 06:30 2014 UNTIL 11
    OCT 17:00 2014. CREATED: 21 AUG 10:55 2014

ETSI P4417/14 AD ETSI: RWY25R/07L VFR ONLY. 15 JUL 11:10 2014
    UNTIL 10 OCT 12:00 2014. CREATED: 15 JUL 11:14 2014

ETSI P4828/14 AD ETSI: AERODROME CLOSED EXCEPT CIVIL TRAFFIC
    WITH STRICTLY PPR, FOLLOWING DAYS: 08.,11.,15.,18.,22.,25.,29.
    AUGUST 01.,02. SEPTEMBER. 05 AUG 11:56 2014 UNTIL 02 SEP
    15:00 2014. CREATED: 05 AUG 12:02 2014

ETSI P5220/14 AD ETSI: RWY25L/07R CLOSED DUE TO CONSTRUCTION
    WORK. 18 SEP 14:00 2014 UNTIL 22 SEP 07:00 2014. CREATED:
    20 AUG 10:01 2014

ETSI P5327/14 AD ETSI: LVTO-PROCEDURE SUSPENDED. 25 AUG 14:58
    2014 UNTIL 21 NOV 10:00 2014. CREATED: 25 AUG 15:04 2014

ETSI P5328/14 AD ETSI: NO SRA POSSIBLE. 25 AUG 15:01 2014 UNTIL
    21 NOV 10:00 2014. CREATED: 25 AUG 15:05 2014

ETSI P5346/14 AD ETSI: PAR RWY25R/07L OUT OF SERVICE. 26 AUG
    06:15 2014 UNTIL 21 NOV 10:00 2014. CREATED: 26 AUG 06:19
    2014

ETSI P5360/14 AD ETSI: OPS HRS MON-THU 0700-1400, FRI 0700-1000.
    03 SEP 07:00 2014 UNTIL 12 SEP 10:00 2014. CREATED: 27 AUG
    04:49 2014

ETSI P5472/14 AD ETSI: TWY 'S' PARTLY CLOSED DUE TO CONSTRUCTION
    WORK. DETAILED INFORMATION GIVEN BY TOWER. 01 SEP 07:00 2014
    UNTIL 02 SEP 14:00 2014. CREATED: 29 AUG 06:00 2014

ETSI P5474/14 AD ETSI: NO RADAR SERVICE. 01 SEP 07:00 2014 UNTIL
    05 SEP 12:00 2014. CREATED: 29 AUG 06:08 2014

---------------------------------------------------------------------------